Time;durP1;ratioP1;P1;durP2;ratioP2;P2;SDS_P1;SDS_P2;PMS_P1;PMS_P2;Temp;Humidity;BMP_temperature;BMP_pressure;BME280_temperature;BME280_humidity;BME280_pressure;Samples;Min_cycle;Max_cycle;Signal;HPM_P1;HPM_P2
2022/03/20 00:00:06;;;;;;;8.88;5.32;;;-0.10;68.50;;;;;;5013689;28;20045;-77
2022/03/20 00:02:33;;;;;;;8.75;5.53;;;-0.20;68.90;;;;;;5016777;28;20045;-77
2022/03/20 00:05:02;;;;;;;8.52;5.35;;;-0.20;69.40;;;;;;5016285;28;20096;-77
2022/03/20 00:07:33;;;;;;;9.57;6.05;;;-0.10;69.20;;;;;;5004193;28;20080;-78
2022/03/20 00:09:59;;;;;;;9.35;5.95;;;-0.10;68.20;;;;;;5018690;28;20026;-76
2022/03/20 00:12:24;;;;;;;7.85;5.40;;;-0.10;68.30;;;;;;5011970;28;20103;-81
2022/03/20 00:14:50;;;;;;;7.78;4.95;;;-0.10;69.40;;;;;;4995898;28;20049;-81
2022/03/20 00:17:16;;;;;;;8.52;5.07;;;-0.10;70.00;;;;;;5023857;28;20081;-82
2022/03/20 00:19:44;;;;;;;7.68;5.00;;;0.00;69.40;;;;;;5010652;28;20048;-78
2022/03/20 00:22:11;;;;;;;10.35;5.43;;;0.00;69.60;;;;;;5003487;28;20042;-79
2022/03/20 00:24:40;;;;;;;7.72;5.47;;;0.00;69.20;;;;;;5013219;28;20132;-77
2022/03/20 00:27:13;;;;;;;8.52;5.63;;;0.00;70.10;;;;;;5013320;28;20021;-77
2022/03/20 00:29:40;;;;;;;9.65;5.85;;;-0.10;70.10;;;;;;5009689;28;20052;-76
2022/03/20 00:32:08;;;;;;;8.95;5.63;;;-0.10;69.20;;;;;;5014524;28;20037;-76
2022/03/20 00:34:34;;;;;;;11.68;5.75;;;-0.10;69.00;;;;;;5012561;28;20026;-76
2022/03/20 00:37:00;;;;;;;9.02;5.68;;;0.10;68.20;;;;;;5013630;28;20044;-76
2022/03/20 00:39:26;;;;;;;11.32;6.15;;;0.20;67.00;;;;;;5015644;28;20041;-76
2022/03/20 00:41:51;;;;;;;9.25;5.57;;;0.20;67.50;;;;;;5025396;28;20052;-76
2022/03/20 00:44:17;;;;;;;11.55;6.65;;;0.30;66.10;;;;;;5017160;28;20679;-76
2022/03/20 00:46:43;;;;;;;11.23;7.20;;;0.30;66.30;;;;;;5014016;28;20099;-76
2022/03/20 00:49:09;;;;;;;9.77;5.93;;;0.40;65.10;;;;;;4980915;28;20050;-76
2022/03/20 00:51:35;;;;;;;9.70;6.45;;;0.50;66.10;;;;;;5016296;28;20221;-76
2022/03/20 00:54:01;;;;;;;13.15;6.25;;;0.50;66.60;;;;;;5010044;28;20170;-79
2022/03/20 00:56:26;;;;;;;11.10;6.90;;;0.50;65.90;;;;;;5013532;28;20034;-79
2022/03/20 00:58:52;;;;;;;7.80;5.45;;;0.50;64.00;;;;;;5013438;28;20046;-78
2022/03/20 01:01:18;;;;;;;9.63;5.90;;;0.50;64.00;;;;;;5013555;28;20030;-79
2022/03/20 01:03:44;;;;;;;10.30;5.88;;;-0.20;65.70;;;;;;5011428;28;20049;-80
2022/03/20 01:06:11;;;;;;;9.68;5.75;;;-0.50;67.30;;;;;;5001498;28;20486;-77
2022/03/20 01:08:38;;;;;;;10.15;5.72;;;-0.50;67.40;;;;;;5003651;28;20065;-76
2022/03/20 01:11:05;;;;;;;11.00;6.57;;;-0.30;67.60;;;;;;5014081;28;20034;-75
2022/03/20 01:13:30;;;;;;;10.32;6.40;;;0.00;67.30;;;;;;5012729;28;20046;-76
2022/03/20 01:15:57;;;;;;;10.82;6.22;;;0.00;68.70;;;;;;5009339;28;20056;-76
2022/03/20 01:18:24;;;;;;;16.27;6.85;;;0.00;69.20;;;;;;5006374;28;20112;-76
2022/03/20 01:20:50;;;;;;;11.30;7.10;;;0.00;68.10;;;;;;5016416;28;20040;-76
2022/03/20 01:23:16;;;;;;;9.00;5.38;;;0.10;68.40;;;;;;5013503;28;20124;-76
2022/03/20 01:25:42;;;;;;;10.77;5.68;;;0.10;67.90;;;;;;5018799;28;20124;-77
2022/03/20 01:28:08;;;;;;;9.40;5.60;;;0.00;68.10;;;;;;5018814;28;20047;-77
2022/03/20 01:30:33;;;;;;;14.13;6.55;;;-0.10;69.40;;;;;;5019987;28;20033;-76
2022/03/20 01:32:59;;;;;;;11.05;6.78;;;-0.10;69.50;;;;;;5021370;28;20585;-76
2022/03/20 01:35:25;;;;;;;11.57;6.90;;;0.00;68.00;;;;;;5020668;28;20029;-76
2022/03/20 01:37:51;;;;;;;10.07;6.25;;;0.10;67.60;;;;;;5023272;28;20130;-80
2022/03/20 01:40:17;;;;;;;12.98;7.18;;;0.10;67.10;;;;;;5022726;28;20446;-78
2022/03/20 01:42:43;;;;;;;12.82;6.60;;;0.40;63.50;;;;;;5021172;28;20115;-79
2022/03/20 01:45:17;;;;;;;11.45;7.38;;;0.60;63.20;;;;;;5023738;28;20037;-78
2022/03/20 01:47:46;;;;;;;13.30;6.68;;;0.70;62.70;;;;;;5027274;28;20572;-76
2022/03/20 01:50:16;;;;;;;10.70;6.57;;;0.90;61.80;;;;;;5018372;28;20049;-74
2022/03/20 01:52:47;;;;;;;9.30;6.10;;;0.80;62.40;;;;;;5024513;28;20403;-78
2022/03/20 01:55:15;;;;;;;10.88;5.88;;;0.50;63.10;;;;;;5021686;28;20048;-80
2022/03/20 01:57:41;;;;;;;11.30;6.53;;;0.30;64.30;;;;;;5022661;28;20034;-80
2022/03/20 02:00:09;;;;;;;8.93;6.38;;;0.10;66.30;;;;;;5022851;28;20072;-80
2022/03/20 02:02:35;;;;;;;10.25;6.88;;;-0.10;67.10;;;;;;5023721;28;20528;-80
2022/03/20 02:05:01;;;;;;;15.82;7.45;;;-0.20;67.20;;;;;;5004750;28;20030;-80
2022/03/20 02:07:28;;;;;;;14.38;7.68;;;-0.40;67.70;;;;;;5025292;28;20034;-80
2022/03/20 02:09:54;;;;;;;15.65;7.93;;;-0.50;67.60;;;;;;5025287;28;20121;-81
2022/03/20 02:12:20;;;;;;;14.50;7.78;;;-0.60;68.30;;;;;;5028231;28;20045;-82
2022/03/20 02:14:46;;;;;;;13.98;7.00;;;-0.40;67.80;;;;;;5017324;28;20029;-83
2022/03/20 02:17:12;;;;;;;12.18;7.97;;;-0.30;67.80;;;;;;5019443;28;20152;-82
2022/03/20 02:19:39;;;;;;;11.90;7.30;;;-0.20;66.00;;;;;;5021338;28;20033;-82
2022/03/20 02:22:06;;;;;;;12.95;7.30;;;-0.20;65.90;;;;;;5025685;28;20592;-81
2022/03/20 02:24:40;;;;;;;14.38;7.05;;;0.00;65.60;;;;;;5014849;28;20038;-81
2022/03/20 02:27:22;;;;;;;12.45;7.15;;;0.00;66.00;;;;;;5029429;28;20076;-81
2022/03/20 02:29:48;;;;;;;;;;;0.00;66.10;;;;;;5019194;28;20072;-80
2022/03/20 02:32:17;;;;;;;10.48;6.22;;;0.00;65.50;;;;;;5022355;28;19910;-80
2022/03/20 02:34:47;;;;;;;11.75;7.20;;;0.10;64.40;;;;;;5003720;28;20087;-80
2022/03/20 02:37:13;;;;;;;12.07;7.45;;;0.10;65.40;;;;;;5017815;28;20037;-80
2022/03/20 02:39:40;;;;;;;13.18;6.78;;;0.20;64.90;;;;;;5026697;28;20048;-80
2022/03/20 02:42:07;;;;;;;9.07;6.25;;;0.30;63.40;;;;;;5023206;28;20033;-80
2022/03/20 02:44:56;;;;;;;11.30;7.43;;;0.30;63.20;;;;;;5023877;28;20148;-81
2022/03/20 02:47:23;;;;;;;10.10;6.90;;;0.40;63.80;;;;;;5007975;28;20128;-79
2022/03/20 02:49:54;;;;;;;11.50;6.82;;;0.40;63.00;;;;;;5021117;28;20034;-78
2022/03/20 02:52:26;;;;;;;11.68;7.13;;;0.50;63.60;;;;;;5014048;28;20044;-79
2022/03/20 02:54:52;;;;;;;10.80;7.43;;;0.40;64.10;;;;;;5018335;28;20119;-79
2022/03/20 02:57:19;;;;;;;11.63;7.25;;;0.30;63.60;;;;;;5020647;28;20057;-79
2022/03/20 02:59:44;;;;;;;12.05;7.03;;;0.30;64.20;;;;;;5020518;28;20037;-79
2022/03/20 03:02:11;;;;;;;10.18;6.80;;;0.30;64.30;;;;;;5018277;28;20069;-79
2022/03/20 03:04:41;;;;;;;13.95;7.45;;;0.30;64.20;;;;;;5022492;28;20440;-80
2022/03/20 03:07:08;;;;;;;13.40;7.30;;;0.40;62.30;;;;;;5006609;28;20041;-80
2022/03/20 03:12:18;;;;;;;12.10;6.88;;;0.60;60.80;;;;;;5021336;28;20049;-79
2022/03/20 03:17:28;;;;;;;11.70;6.60;;;0.70;60.60;;;;;;5022542;28;20052;-79
2022/03/20 03:19:55;;;;;;;11.57;6.97;;;0.60;60.20;;;;;;5015706;28;20058;-79
2022/03/20 03:22:21;;;;;;;11.77;7.25;;;0.60;63.40;;;;;;5023402;28;20033;-80
2022/03/20 03:24:46;;;;;;;11.18;7.32;;;0.50;62.20;;;;;;5028320;28;20068;-80
2022/03/20 03:27:12;;;;;;;9.65;6.47;;;0.50;62.70;;;;;;5019217;28;20963;-80
2022/03/20 03:29:38;;;;;;;10.02;6.47;;;0.50;61.50;;;;;;5024879;28;20041;-79
2022/03/20 03:32:05;;;;;;;11.57;6.78;;;0.70;61.20;;;;;;5022920;28;20052;-80
2022/03/20 03:37:20;;;;;;;10.73;6.88;;;-0.80;64.50;;;;;;5021426;28;20087;-80
2022/03/20 03:39:46;;;;;;;13.18;8.82;;;-0.90;66.70;;;;;;5022452;28;20053;-80
2022/03/20 03:42:12;;;;;;;11.95;8.88;;;-0.70;67.30;;;;;;5016771;28;20083;-80
2022/03/20 03:44:39;;;;;;;12.52;8.52;;;-0.50;66.50;;;;;;5019456;28;21166;-80
2022/03/20 03:47:05;;;;;;;11.68;7.38;;;-0.40;65.20;;;;;;5012366;28;20057;-80
2022/03/20 03:49:33;;;;;;;10.98;7.32;;;-0.30;64.30;;;;;;5012800;28;20031;-80
2022/03/20 03:52:00;;;;;;;10.65;6.63;;;-0.20;63.80;;;;;;5010281;28;20048;-79
2022/03/20 03:54:26;;;;;;;14.13;7.72;;;0.10;62.20;;;;;;5018353;28;20034;-79
2022/03/20 03:56:51;;;;;;;14.77;7.28;;;0.30;61.20;;;;;;5020973;28;20038;-79
2022/03/20 03:59:17;;;;;;;15.27;8.15;;;0.50;60.00;;;;;;5021151;28;20036;-80
2022/03/20 04:01:43;;;;;;;12.10;7.30;;;0.50;62.80;;;;;;5019409;28;20041;-79
2022/03/20 04:04:09;;;;;;;13.95;7.60;;;0.50;62.00;;;;;;5022432;28;20064;-79
2022/03/20 04:06:35;;;;;;;14.77;7.97;;;0.40;61.80;;;;;;5020590;28;20029;-79
2022/03/20 04:09:00;;;;;;;15.98;7.63;;;-0.10;62.80;;;;;;5021400;28;20041;-79
2022/03/20 04:11:27;;;;;;;12.95;7.40;;;-0.20;65.40;;;;;;5024542;28;20041;-80
2022/03/20 04:13:52;;;;;;;11.25;6.85;;;-0.40;65.20;;;;;;5015006;28;20054;-80
2022/03/20 04:16:18;;;;;;;11.63;7.13;;;-0.50;65.30;;;;;;5018277;28;20048;-80
2022/03/20 04:18:44;;;;;;;11.50;7.38;;;-0.50;65.10;;;;;;5023061;28;20064;-79
2022/03/20 04:21:10;;;;;;;11.27;7.32;;;-0.40;65.20;;;;;;5024536;28;20124;-81
2022/03/20 04:23:49;;;;;;;11.40;7.18;;;-0.20;64.90;;;;;;5021386;28;20053;-81
2022/03/20 04:26:23;;;;;;;11.77;6.70;;;-0.20;65.00;;;;;;5022417;28;20111;-81
2022/03/20 04:28:51;;;;;;;11.40;6.70;;;-0.40;64.80;;;;;;5021522;28;20108;-80
2022/03/20 04:31:17;;;;;;;11.70;7.30;;;-0.60;65.10;;;;;;5023003;28;20021;-81
2022/03/20 04:33:50;;;;;;;12.52;7.65;;;-0.70;65.70;;;;;;5026537;28;20053;-80
2022/03/20 04:36:17;;;;;;;11.70;7.60;;;-0.70;66.70;;;;;;5020147;28;20129;-79
2022/03/20 04:38:46;;;;;;;9.95;6.90;;;-0.80;65.60;;;;;;5019957;28;20375;-80
2022/03/20 04:41:11;;;;;;;9.85;7.15;;;-0.90;66.10;;;;;;5019766;28;20133;-81
2022/03/20 04:43:37;;;;;;;13.07;7.10;;;-0.90;66.20;;;;;;5021206;28;20631;-81
2022/03/20 04:46:02;;;;;;;11.85;7.35;;;-0.80;66.80;;;;;;5020675;28;20037;-81
2022/03/20 04:59:26;;;;;;;12.13;7.63;;;-0.60;66.00;;;;;;5008585;28;20052;-81
2022/03/20 05:01:51;;;;;;;13.75;7.63;;;-0.60;68.10;;;;;;5024733;28;20091;-81
2022/03/20 05:04:17;;;;;;;11.80;7.38;;;-0.70;68.40;;;;;;5026714;28;20041;-81
2022/03/20 05:06:43;;;;;;;11.82;7.10;;;-0.70;67.30;;;;;;5028215;28;20033;-81
2022/03/20 05:14:37;;;;;;;12.40;8.00;;;-0.60;67.10;;;;;;5021790;28;20049;-80
2022/03/20 05:17:05;;;;;;;12.95;8.63;;;-0.50;67.40;;;;;;5025596;28;20041;-80
2022/03/20 05:19:35;;;;;;;13.25;8.18;;;-0.50;66.80;;;;;;5020814;28;20064;-80
2022/03/20 05:22:05;;;;;;;15.07;8.18;;;-0.30;67.50;;;;;;5028403;28;20036;-79
2022/03/20 05:24:35;;;;;;;11.63;8.20;;;-0.20;66.50;;;;;;5016710;28;20522;-79
2022/03/20 05:27:01;;;;;;;12.88;8.63;;;-0.10;66.60;;;;;;5024368;28;20046;-79
2022/03/20 05:29:27;;;;;;;11.43;7.97;;;-0.10;66.90;;;;;;5019845;28;20030;-79
2022/03/20 05:31:55;;;;;;;11.95;8.00;;;0.00;68.50;;;;;;5021547;28;20111;-80
2022/03/20 05:34:22;;;;;;;14.25;7.82;;;0.10;67.40;;;;;;5025631;28;20048;-80
2022/03/20 05:36:49;;;;;;;13.05;8.50;;;0.20;66.50;;;;;;5022119;28;20113;-80
2022/03/20 05:39:15;;;;;;;14.77;9.13;;;0.30;66.60;;;;;;5026998;28;20065;-80
2022/03/20 05:41:47;;;;;;;13.75;8.38;;;0.40;67.60;;;;;;5024958;28;20561;-80
2022/03/20 05:44:17;;;;;;;16.58;8.88;;;0.50;67.40;;;;;;5024205;28;20727;-80
2022/03/20 05:46:44;;;;;;;11.57;7.65;;;0.60;66.50;;;;;;5020803;28;20097;-80
2022/03/20 05:49:10;;;;;;;13.77;7.97;;;0.80;66.20;;;;;;5027123;28;20045;-80
2022/03/20 05:51:37;;;;;;;16.63;9.57;;;1.10;65.90;;;;;;5028611;28;20067;-80
2022/03/20 05:54:04;;;;;;;13.80;9.10;;;1.10;65.40;;;;;;5026338;28;20049;-80
2022/03/20 05:59:13;;;;;;;11.55;8.45;;;1.40;68.30;;;;;;5029784;28;20072;-77
2022/03/20 06:01:39;;;;;;;13.90;8.50;;;1.50;69.10;;;;;;5022928;28;20038;-79
2022/03/20 06:04:06;;;;;;;14.95;8.60;;;1.70;67.40;;;;;;5008770;28;20049;-78
2022/03/20 06:06:32;;;;;;;10.77;8.23;;;1.90;65.60;;;;;;5017983;28;20160;-76
2022/03/20 06:08:58;;;;;;;12.93;8.48;;;2.20;64.70;;;;;;5018603;28;20037;-76
2022/03/20 06:11:24;;;;;;;12.93;8.77;;;2.40;65.60;;;;;;5024167;28;20095;-76
2022/03/20 06:13:49;;;;;;;13.63;8.93;;;2.60;66.50;;;;;;5022926;28;20040;-76
2022/03/20 06:16:16;;;;;;;14.35;9.43;;;2.70;64.40;;;;;;5013629;28;20271;-76
2022/03/20 06:18:42;;;;;;;13.10;8.88;;;2.80;64.70;;;;;;5025702;28;20061;-76
2022/03/20 06:21:09;;;;;;;16.58;9.35;;;2.80;63.30;;;;;;5021111;28;20393;-76
2022/03/20 06:23:35;;;;;;;22.30;16.67;;;2.90;63.20;;;;;;5014872;28;20057;-75
2022/03/20 06:26:01;;;;;;;15.95;10.60;;;3.00;63.10;;;;;;5027551;28;20394;-75
2022/03/20 06:28:27;;;;;;;14.73;8.70;;;3.00;63.20;;;;;;5024002;28;20034;-76
2022/03/20 06:30:53;;;;;;;13.05;8.27;;;3.20;62.90;;;;;;5021468;28;20099;-76
2022/03/20 06:33:20;;;;;;;13.27;8.65;;;3.30;62.20;;;;;;5026088;28;20037;-76
2022/03/20 06:35:46;;;;;;;11.25;8.30;;;3.40;60.90;;;;;;5019083;28;20049;-76
2022/03/20 06:38:12;;;;;;;11.93;8.02;;;3.50;60.60;;;;;;5015608;28;20044;-76
2022/03/20 06:40:38;;;;;;;12.68;8.38;;;3.60;60.20;;;;;;5023371;28;20037;-76
2022/03/20 06:43:04;;;;;;;10.88;7.70;;;3.60;60.20;;;;;;5027489;28;20699;-74
2022/03/20 06:45:29;;;;;;;10.40;7.20;;;3.70;60.00;;;;;;5016946;28;20689;-75
2022/03/20 06:47:55;;;;;;;11.32;7.88;;;3.70;60.20;;;;;;5023612;28;20042;-75
2022/03/20 06:50:21;;;;;;;12.77;7.63;;;3.80;59.10;;;;;;5018005;28;20053;-74
2022/03/20 06:52:46;;;;;;;10.38;8.07;;;3.70;59.00;;;;;;5022976;28;20065;-74
2022/03/20 06:55:14;;;;;;;11.45;8.00;;;3.80;59.00;;;;;;5021478;28;20127;-74
2022/03/20 06:57:44;;;;;;;11.30;7.68;;;3.90;59.10;;;;;;5006111;28;20402;-74
2022/03/20 07:00:11;;;;;;;11.32;7.47;;;3.90;59.00;;;;;;5020704;28;20104;-74
2022/03/20 07:02:37;;;;;;;11.05;7.53;;;4.00;58.60;;;;;;5016624;28;20045;-73
2022/03/20 07:05:03;;;;;;;9.52;7.40;;;4.20;58.50;;;;;;5020472;28;20119;-74
2022/03/20 07:07:29;;;;;;;12.85;8.38;;;4.40;58.60;;;;;;5019551;28;20398;-75
2022/03/20 07:09:55;;;;;;;10.90;7.32;;;4.40;57.80;;;;;;5020505;28;20038;-73
2022/03/20 07:12:21;;;;;;;10.40;7.85;;;4.40;57.70;;;;;;5019614;28;20034;-74
2022/03/20 07:14:46;;;;;;;14.32;7.50;;;4.40;57.90;;;;;;5019369;28;20052;-73
2022/03/20 07:17:15;;;;;;;12.43;7.32;;;4.40;58.30;;;;;;5020585;28;20040;-73
2022/03/20 07:19:43;;;;;;;10.70;7.82;;;4.50;58.20;;;;;;5024880;28;20041;-74
2022/03/20 07:22:10;;;;;;;11.00;7.80;;;4.50;57.90;;;;;;5015038;28;20029;-73
2022/03/20 07:24:39;;;;;;;22.92;8.80;;;4.50;57.20;;;;;;5015831;28;20045;-75
2022/03/20 07:29:50;;;;;;;11.25;7.72;;;4.60;56.70;;;;;;5017949;28;20065;-72
2022/03/20 07:32:16;;;;;;;13.70;7.57;;;4.50;56.90;;;;;;5021005;28;20052;-73
2022/03/20 07:34:45;;;;;;;10.05;7.55;;;4.60;57.60;;;;;;5021799;28;20083;-73
2022/03/20 07:37:18;;;;;;;11.18;7.15;;;4.70;56.30;;;;;;5022681;28;20241;-73
2022/03/20 07:39:49;;;;;;;10.75;7.45;;;4.80;56.60;;;;;;5019866;28;20036;-74
2022/03/20 07:42:16;;;;;;;9.85;7.82;;;5.00;55.10;;;;;;5025583;28;20451;-72
2022/03/20 07:44:45;;;;;;;11.98;8.52;;;5.10;55.20;;;;;;5024188;28;20055;-76
2022/03/20 07:47:19;;;;;;;10.75;7.55;;;5.20;56.10;;;;;;5026376;28;20030;-74
2022/03/20 07:49:45;;;;;;;12.30;8.13;;;5.40;54.80;;;;;;5024448;28;20032;-75
2022/03/20 07:52:11;;;;;;;8.68;6.95;;;5.60;53.40;;;;;;5021718;28;20136;-74
2022/03/20 07:54:38;;;;;;;8.98;6.68;;;5.70;52.40;;;;;;5026695;28;20465;-76
2022/03/20 07:57:04;;;;;;;9.60;7.28;;;5.60;52.10;;;;;;5028235;28;20037;-75
2022/03/20 07:59:30;;;;;;;9.90;6.93;;;5.70;52.20;;;;;;5024508;28;20046;-74
2022/03/20 08:01:55;;;;;;;8.38;6.53;;;5.90;51.20;;;;;;5022525;28;20064;-74
2022/03/20 08:04:22;;;;;;;14.55;7.18;;;5.90;51.40;;;;;;5023157;28;20140;-74
2022/03/20 08:06:48;;;;;;;14.60;6.55;;;6.00;51.10;;;;;;5023869;28;20115;-70
2022/03/20 08:09:14;;;;;;;12.30;6.05;;;6.10;51.50;;;;;;5021348;28;20042;-76
2022/03/20 08:11:39;;;;;;;11.82;6.60;;;6.40;51.50;;;;;;5023136;28;20026;-75
2022/03/20 08:14:08;;;;;;;8.32;6.18;;;6.20;49.30;;;;;;5018351;28;20060;-75
2022/03/20 08:16:36;;;;;;;9.27;6.38;;;6.10;49.50;;;;;;5029697;28;20089;-76
2022/03/20 08:19:02;;;;;;;8.88;6.18;;;6.00;49.20;;;;;;5017490;28;20042;-78
2022/03/20 08:21:28;;;;;;;8.85;6.75;;;5.90;49.20;;;;;;5017065;28;20026;-76
2022/03/20 08:23:54;;;;;;;12.80;6.72;;;6.00;49.80;;;;;;5022064;28;20114;-76
2022/03/20 08:26:20;;;;;;;12.10;7.95;;;6.20;49.30;;;;;;5025627;28;20049;-76
2022/03/20 08:28:46;;;;;;;9.20;6.68;;;6.20;48.80;;;;;;5029573;28;20075;-75
2022/03/20 08:31:13;;;;;;;8.82;6.40;;;6.30;49.10;;;;;;5027482;28;20040;-75
2022/03/20 08:33:42;;;;;;;9.63;7.15;;;6.40;48.90;;;;;;5022429;28;20079;-75
2022/03/20 08:36:08;;;;;;;9.38;6.22;;;6.50;49.00;;;;;;5032042;28;20037;-75
2022/03/20 08:38:34;;;;;;;11.35;6.47;;;6.60;48.10;;;;;;5033120;28;20382;-76
2022/03/20 08:41:01;;;;;;;10.07;7.03;;;6.50;47.80;;;;;;5036316;28;20564;-75
2022/03/20 08:43:27;;;;;;;14.57;8.95;;;6.40;48.40;;;;;;5035987;28;20048;-75
2022/03/20 08:45:52;;;;;;;10.50;6.88;;;6.50;48.50;;;;;;5039965;28;20038;-75
2022/03/20 08:48:19;;;;;;;9.35;6.75;;;6.60;49.10;;;;;;5034037;28;20048;-77
2022/03/20 08:50:48;;;;;;;9.48;6.80;;;6.60;49.30;;;;;;5037836;28;20076;-78
2022/03/20 08:53:17;;;;;;;10.55;7.28;;;6.70;48.60;;;;;;5031822;28;20778;-77
2022/03/20 08:55:42;;;;;;;11.52;6.85;;;6.90;48.10;;;;;;5026598;28;20080;-75
2022/03/20 08:58:08;;;;;;;8.60;6.05;;;7.00;47.50;;;;;;5032754;28;20030;-77
2022/03/20 09:00:34;;;;;;;21.33;10.15;;;7.20;47.30;;;;;;5032774;28;20075;-74
2022/03/20 09:03:00;;;;;;;9.88;6.78;;;7.30;47.10;;;;;;5029882;28;20058;-74
2022/03/20 09:05:26;;;;;;;11.52;5.90;;;7.30;46.50;;;;;;5031026;28;20037;-73
2022/03/20 09:07:53;;;;;;;9.07;6.20;;;7.30;46.30;;;;;;5028872;28;20036;-75
2022/03/20 09:10:19;;;;;;;12.00;6.60;;;7.20;46.50;;;;;;5028883;28;20072;-73
2022/03/20 09:12:45;;;;;;;7.72;5.95;;;7.30;46.50;;;;;;5033336;28;20295;-73
2022/03/20 09:15:13;;;;;;;6.30;5.63;;;7.40;45.30;;;;;;5035171;28;20037;-73
2022/03/20 09:20:29;;;;;;;7.45;6.18;;;7.50;46.20;;;;;;5024675;28;20095;-75
2022/03/20 09:22:55;;;;;;;8.48;6.35;;;7.60;46.20;;;;;;5031128;28;20069;-72
2022/03/20 09:25:21;;;;;;;9.88;5.70;;;7.70;46.00;;;;;;5033364;28;20048;-74
2022/03/20 09:27:51;;;;;;;7.95;5.85;;;7.70;44.80;;;;;;5024611;28;20060;-76
2022/03/20 09:30:21;;;;;;;10.43;6.18;;;7.60;44.50;;;;;;5023473;28;20096;-72
2022/03/20 09:32:48;;;;;;;7.60;6.35;;;7.40;44.50;;;;;;5023287;28;20038;-74
2022/03/20 09:35:14;;;;;;;7.45;6.18;;;7.50;45.60;;;;;;5018915;28;20545;-75
2022/03/20 09:37:40;;;;;;;6.93;5.53;;;7.80;44.80;;;;;;5018953;28;20037;-75
2022/03/20 09:40:09;;;;;;;7.90;5.95;;;7.80;45.00;;;;;;5007739;28;20083;-78
2022/03/20 09:42:36;;;;;;;10.43;6.90;;;7.80;44.70;;;;;;5025227;28;20065;-76
2022/03/20 09:45:04;;;;;;;9.02;6.50;;;7.90;45.80;;;;;;5021152;28;20099;-78
2022/03/20 09:47:30;;;;;;;8.63;6.65;;;8.00;43.50;;;;;;5020994;28;20128;-81
2022/03/20 09:49:56;;;;;;;9.48;6.53;;;8.00;44.40;;;;;;5023190;28;20160;-78
2022/03/20 09:52:23;;;;;;;7.63;6.43;;;8.10;43.20;;;;;;5002432;28;20506;-77
2022/03/20 09:54:49;;;;;;;8.02;6.40;;;8.00;42.90;;;;;;5017620;28;20041;-75
2022/03/20 09:57:15;;;;;;;8.75;6.53;;;8.00;43.40;;;;;;5019669;28;20129;-76
2022/03/20 09:59:41;;;;;;;11.18;6.50;;;8.10;43.50;;;;;;5021673;28;20565;-76
2022/03/20 10:02:09;;;;;;;9.07;7.13;;;8.30;44.30;;;;;;5018301;28;20030;-79
2022/03/20 10:05:01;;;;;;;9.52;6.13;;;8.50;43.50;;;;;;5017947;28;20046;-79
2022/03/20 10:07:30;;;;;;;9.80;5.85;;;8.50;42.80;;;;;;5018872;28;20063;-79
2022/03/20 10:10:22;;;;;;;9.50;6.30;;;8.50;42.70;;;;;;5014072;28;20028;-77
2022/03/20 10:13:12;;;;;;;8.35;7.03;;;8.60;41.90;;;;;;5015036;28;20120;-77
2022/03/20 10:15:43;;;;;;;11.60;6.93;;;8.60;43.20;;;;;;5016279;28;20597;-74
2022/03/20 10:18:23;;;;;;;7.85;6.40;;;8.70;42.90;;;;;;5009805;28;20402;-76
2022/03/20 10:20:56;;;;;;;43.53;9.73;;;8.90;42.40;;;;;;5016519;28;20037;-70
2022/03/20 10:23:39;;;;;;;10.13;6.22;;;9.00;42.50;;;;;;5016936;28;20049;-66
2022/03/20 10:26:17;;;;;;;10.85;8.45;;;9.20;42.50;;;;;;5014679;28;20041;-76
2022/03/20 10:28:44;;;;;;;11.02;8.10;;;9.40;41.90;;;;;;5014157;28;20037;-81
2022/03/20 10:31:18;;;;;;;9.18;7.13;;;9.40;43.00;;;;;;5019092;28;20033;-85
2022/03/20 10:33:58;;;;;;;7.88;6.10;;;9.50;42.70;;;;;;5017748;28;20041;-72
2022/03/20 10:36:24;;;;;;;8.70;5.78;;;9.60;44.40;;;;;;5016045;28;20498;-79
2022/03/20 10:38:50;;;;;;;7.97;5.68;;;9.90;43.80;;;;;;5020192;28;20144;-75
2022/03/20 10:41:26;;;;;;;8.63;5.95;;;9.90;41.60;;;;;;5018865;28;20040;-75
2022/03/20 10:43:53;;;;;;;7.10;5.72;;;9.80;40.30;;;;;;5021542;28;20041;-77
2022/03/20 10:46:30;;;;;;;7.68;5.50;;;9.70;39.90;;;;;;5019899;28;20036;-84
2022/03/20 10:49:01;;;;;;;9.50;6.25;;;9.70;40.80;;;;;;5020878;28;20059;-77
2022/03/20 10:51:39;;;;;;;10.07;5.32;;;9.80;40.70;;;;;;5024100;28;20057;-76
2022/03/20 10:54:06;;;;;;;7.05;5.20;;;9.90;38.90;;;;;;5018884;28;20038;-79
2022/03/20 10:56:32;;;;;;;9.25;6.18;;;9.90;40.00;;;;;;5017866;28;20040;-79
2022/03/20 10:58:58;;;;;;;7.97;6.25;;;10.00;39.70;;;;;;5016241;28;20034;-79
2022/03/20 11:01:35;;;;;;;7.60;5.13;;;10.10;39.60;;;;;;5018185;28;20033;-76
2022/03/20 11:04:01;;;;;;;8.02;5.53;;;10.20;38.00;;;;;;5023042;28;20193;-79
2022/03/20 11:06:27;;;;;;;6.85;5.70;;;10.00;38.80;;;;;;5025146;28;20530;-76
2022/03/20 11:08:53;;;;;;;7.97;5.95;;;10.00;39.70;;;;;;5023363;28;20211;-81
2022/03/20 11:11:19;;;;;;;9.65;6.82;;;10.30;40.10;;;;;;5021650;28;20068;-67
2022/03/20 11:13:48;;;;;;;12.02;6.50;;;10.50;40.40;;;;;;5027197;28;20091;-75
2022/03/20 11:16:15;;;;;;;10.85;7.07;;;10.50;38.80;;;;;;5028871;28;20037;-76
2022/03/20 11:18:43;;;;;;;9.05;5.97;;;10.40;36.70;;;;;;5019201;28;20514;-81
2022/03/20 11:21:10;;;;;;;7.68;6.03;;;10.00;38.20;;;;;;5022244;28;20557;-82
2022/03/20 11:23:36;;;;;;;6.07;4.78;;;10.00;38.20;;;;;;5018465;28;20038;-79
2022/03/20 11:26:03;;;;;;;6.72;4.65;;;10.00;37.80;;;;;;5024086;28;20041;-78
2022/03/20 11:28:35;;;;;;;8.52;5.40;;;10.10;36.30;;;;;;5021953;28;20050;-77
2022/03/20 11:31:01;;;;;;;6.20;4.50;;;10.20;35.30;;;;;;5022705;28;20045;-76
2022/03/20 11:33:27;;;;;;;9.23;7.07;;;10.20;35.00;;;;;;5018821;28;20465;-78
2022/03/20 11:35:53;;;;;;;14.02;10.15;;;10.10;37.10;;;;;;5020700;28;20034;-77
2022/03/20 11:38:22;;;;;;;8.75;6.93;;;10.30;36.30;;;;;;5025854;28;20045;-79
2022/03/20 11:41:08;;;;;;;5.22;4.63;;;10.30;37.10;;;;;;5021143;28;20025;-77
2022/03/20 11:43:39;;;;;;;7.68;5.47;;;10.50;36.90;;;;;;5022466;28;20095;-76
2022/03/20 11:46:30;;;;;;;8.53;6.37;;;10.70;36.40;;;;;;5021385;28;20065;-77
2022/03/20 11:49:17;;;;;;;7.68;6.20;;;10.80;36.10;;;;;;5028545;28;20454;-76
2022/03/20 11:52:07;;;;;;;6.60;5.63;;;10.60;35.80;;;;;;5022700;28;20073;-77
2022/03/20 11:54:42;;;;;;;6.97;5.38;;;10.40;36.10;;;;;;5023373;28;20560;-75
2022/03/20 11:57:28;;;;;;;10.18;4.38;;;10.30;35.90;;;;;;5027825;28;20045;-74
2022/03/20 11:59:57;;;;;;;5.43;4.82;;;10.40;35.50;;;;;;5023060;28;20620;-70
2022/03/20 12:02:36;;;;;;;7.32;5.63;;;10.40;35.30;;;;;;5023835;28;20047;-72
2022/03/20 12:05:13;;;;;;;8.02;6.63;;;10.20;34.40;;;;;;5027866;28;20080;-72
2022/03/20 12:08:08;;;;;;;4.57;3.83;;;10.10;34.90;;;;;;5019865;28;20033;-71
2022/03/20 12:10:43;;;;;;;5.95;4.18;;;10.20;34.40;;;;;;5020105;28;20033;-69
2022/03/20 12:13:53;;;;;;;5.03;4.13;;;10.20;33.40;;;;;;5017878;28;20067;-70
2022/03/20 12:16:43;;;;;;;11.15;7.88;;;10.20;33.90;;;;;;4990764;28;20150;-71
2022/03/20 12:19:13;;;;;;;5.13;4.18;;;10.20;34.50;;;;;;5021051;28;20041;-70
2022/03/20 12:21:54;;;;;;;7.40;5.55;;;10.20;33.60;;;;;;5018192;28;20046;-70
2022/03/20 12:24:35;;;;;;;6.32;3.50;;;10.30;34.00;;;;;;5020176;28;20053;-72
2022/03/20 12:27:24;;;;;;;4.40;2.90;;;10.40;32.50;;;;;;5012577;28;20045;-71
2022/03/20 12:29:55;;;;;;;5.50;3.35;;;10.30;31.80;;;;;;5010309;28;20038;-71
2022/03/20 12:32:28;;;;;;;4.38;3.15;;;10.30;31.20;;;;;;5020329;28;20046;-71
2022/03/20 12:34:57;;;;;;;8.88;5.78;;;10.30;30.90;;;;;;5020577;28;20028;-71
2022/03/20 12:37:33;;;;;;;14.43;3.28;;;10.30;31.10;;;;;;5019025;28;20026;-69
2022/03/20 12:40:17;;;;;;;12.50;5.68;;;10.10;31.10;;;;;;5020394;28;20103;-70
2022/03/20 12:43:14;;;;;;;11.20;8.73;;;9.90;30.90;;;;;;5018419;28;20116;-71
2022/03/20 12:45:45;;;;;;;4.40;3.25;;;10.00;31.20;;;;;;4990218;28;20041;-72
2022/03/20 12:48:16;;;;;;;4.37;2.87;;;10.10;30.70;;;;;;5015745;28;20041;-72
2022/03/20 12:50:44;;;;;;;4.32;3.00;;;10.10;31.00;;;;;;5016989;28;20406;-70
2022/03/20 12:53:15;;;;;;;5.82;3.40;;;10.30;31.00;;;;;;5020348;28;20034;-71
2022/03/20 12:55:43;;;;;;;8.13;4.25;;;10.30;31.30;;;;;;5020646;28;20041;-71
2022/03/20 12:58:15;;;;;;;4.55;3.30;;;10.40;31.50;;;;;;5022201;28;20091;-70
2022/03/20 13:00:42;;;;;;;4.35;3.25;;;10.40;30.70;;;;;;5023884;28;20150;-71
2022/03/20 13:03:14;;;;;;;3.88;2.17;;;10.50;29.80;;;;;;5020002;28;20044;-71
2022/03/20 13:05:57;;;;;;;6.90;4.57;;;10.50;30.10;;;;;;5009172;28;20505;-71
2022/03/20 13:08:29;;;;;;;;;;;10.60;30.50;;;;;;5023134;28;20057;-71
2022/03/20 13:10:56;;;;;;;8.85;2.85;;;10.90;29.90;;;;;;5017001;28;19914;-70
2022/03/20 13:13:34;;;;;;;5.43;3.47;;;10.80;29.30;;;;;;5022828;28;20145;-70
2022/03/20 13:16:05;;;;;;;4.75;3.20;;;10.50;30.10;;;;;;5014146;28;20422;-71
2022/03/20 13:18:33;;;;;;;4.18;2.67;;;10.50;29.90;;;;;;5021995;28;20034;-71
2022/03/20 13:21:05;;;;;;;4.63;3.40;;;10.50;30.30;;;;;;5020449;28;20061;-70
2022/03/20 13:23:31;;;;;;;3.40;3.00;;;10.70;31.80;;;;;;5027590;28;20051;-73
2022/03/20 13:25:58;;;;;;;4.65;3.58;;;11.00;31.20;;;;;;5031999;28;20029;-69
2022/03/20 13:28:30;;;;;;;10.57;5.05;;;11.10;30.50;;;;;;5023629;28;20036;-71